createdAt,value
2023-01-13T00:00:50.477Z,7.44
2023-01-13T00:03:17.235Z,7.45
2023-01-13T00:05:43.854Z,7.44
2023-01-13T00:08:10.385Z,7.46
2023-01-13T00:10:36.932Z,7.45
2023-01-13T00:13:04.977Z,7.42
2023-01-13T00:15:32.897Z,7.44
2023-01-13T00:17:59.418Z,7.46
2023-01-13T00:20:25.952Z,7.46
2023-01-13T00:22:52.549Z,7.44
2023-01-13T00:25:19.046Z,7.42
2023-01-13T00:27:45.632Z,7.40
2023-01-13T00:30:12.520Z,7.41
2023-01-13T00:32:39.014Z,7.38
2023-01-13T00:35:06.084Z,7.36
2023-01-13T00:37:32.612Z,7.36
2023-01-13T00:39:59.409Z,7.33
2023-01-13T00:42:44.573Z,7.31
2023-01-13T00:45:11.249Z,7.32
2023-01-13T00:47:37.882Z,7.30
2023-01-13T00:50:04.952Z,7.24
2023-01-13T00:52:32.815Z,7.26
2023-01-13T00:54:59.347Z,7.25
2023-01-13T00:57:25.921Z,7.22
2023-01-13T00:59:52.442Z,7.22
2023-01-13T01:02:19.028Z,7.23
2023-01-13T01:04:45.742Z,7.21
2023-01-13T01:07:12.284Z,7.17
2023-01-13T01:09:39.559Z,7.16
2023-01-13T01:12:06.534Z,7.18
2023-01-13T01:14:33.153Z,7.15
2023-01-13T01:16:59.636Z,7.13
2023-01-13T01:19:26.208Z,7.12
2023-01-13T01:21:52.885Z,7.09
2023-01-13T01:24:19.502Z,7.06
2023-01-13T01:26:46.096Z,7.04
2023-01-13T01:29:15.392Z,7.04
2023-01-13T01:31:42.930Z,7.06
2023-01-13T01:34:09.698Z,7.01
2023-01-13T01:36:36.712Z,6.99
2023-01-13T01:39:03.956Z,6.94
2023-01-13T01:41:34.756Z,6.95
2023-01-13T01:44:38.642Z,6.97
2023-01-13T01:47:05.273Z,6.93
2023-01-13T01:49:35.067Z,6.93
2023-01-13T01:52:14.523Z,6.90
2023-01-13T01:54:52.867Z,6.91
2023-01-13T01:57:25.307Z,6.89
2023-01-13T01:59:52.426Z,6.90
2023-01-13T02:02:19.168Z,6.88
2023-01-13T02:04:51.547Z,6.89
2023-01-13T02:07:25.390Z,6.88
2023-01-13T02:09:54.049Z,6.89
2023-01-13T02:12:29.501Z,6.91
2023-01-13T02:15:03.254Z,6.90
2023-01-13T02:18:07.007Z,6.90
2023-01-13T02:20:54.184Z,6.90
2023-01-13T02:23:54.510Z,6.89
2023-01-13T02:26:39.669Z,6.89
2023-01-13T02:29:34.226Z,6.88
2023-01-13T02:32:10.539Z,6.85
2023-01-13T02:34:42.415Z,6.89
2023-01-13T02:37:20.740Z,6.90
2023-01-13T02:40:11.224Z,6.88
2023-01-13T02:43:27.206Z,6.88
2023-01-13T02:45:59.255Z,6.89
2023-01-13T02:48:29.846Z,6.86
2023-01-13T02:51:05.083Z,6.82
2023-01-13T02:53:41.125Z,6.86
2023-01-13T02:56:10.051Z,6.86
2023-01-13T02:58:39.660Z,6.84
2023-01-13T03:01:06.494Z,6.85
2023-01-13T03:03:33.093Z,6.84
2023-01-13T03:06:07.555Z,6.85
2023-01-13T03:08:43.120Z,6.84
2023-01-13T03:11:12.967Z,6.85
2023-01-13T03:13:51.299Z,6.86
2023-01-13T03:16:30.197Z,6.84
2023-01-13T03:19:11.937Z,6.79
2023-01-13T03:21:49.202Z,6.83
2023-01-13T03:24:37.177Z,6.80
2023-01-13T03:27:10.534Z,6.78
2023-01-13T03:29:41.209Z,6.80
2023-01-13T03:32:36.956Z,6.81
2023-01-13T03:35:17.799Z,6.80
2023-01-13T03:37:49.798Z,6.77
2023-01-13T03:40:23.466Z,6.74
2023-01-13T03:43:14.233Z,6.77
2023-01-13T03:45:42.484Z,6.75
2023-01-13T03:48:14.832Z,6.74
2023-01-13T03:50:48.007Z,6.75
2023-01-13T03:53:20.953Z,6.78
2023-01-13T03:55:51.563Z,6.80
2023-01-13T03:58:23.384Z,6.80
2023-01-13T04:00:56.432Z,6.83
2023-01-13T04:03:40.979Z,6.77
2023-01-13T04:06:16.291Z,6.81
2023-01-13T04:09:03.157Z,6.81
2023-01-13T04:11:40.165Z,6.81
2023-01-13T04:14:10.692Z,6.82
2023-01-13T04:16:37.864Z,6.86
2023-01-13T04:19:04.470Z,6.85
2023-01-13T04:21:31.230Z,6.89
2023-01-13T04:23:57.718Z,6.90
2023-01-13T04:26:24.427Z,6.92
2023-01-13T04:28:51.956Z,6.94
2023-01-13T04:31:22.258Z,6.94
2023-01-13T04:33:48.844Z,6.96
2023-01-13T04:36:15.858Z,6.97
2023-01-13T04:38:42.467Z,6.94
2023-01-13T04:41:08.959Z,6.96
2023-01-13T04:43:35.474Z,6.96
2023-01-13T04:46:02.126Z,6.95
2023-01-13T04:48:28.791Z,6.94
2023-01-13T04:50:55.346Z,6.95
2023-01-13T04:53:21.817Z,6.96
2023-01-13T04:55:49.711Z,6.97
2023-01-13T04:58:16.387Z,6.98
2023-01-13T05:00:43.101Z,6.99
2023-01-13T05:03:09.622Z,6.99
2023-01-13T05:05:36.263Z,7.02
2023-01-13T05:08:03.219Z,7.04
2023-01-13T05:10:29.956Z,7.05
2023-01-13T05:13:15.433Z,7.04
2023-01-13T05:16:00.899Z,7.04
2023-01-13T05:18:29.567Z,7.04
2023-01-13T05:20:56.140Z,7.06
2023-01-13T05:23:41.380Z,7.06
2023-01-13T05:26:08.095Z,7.07
2023-01-13T05:28:35.024Z,7.09
2023-01-13T05:31:01.764Z,7.13
2023-01-13T05:33:28.510Z,7.15
2023-01-13T05:35:55.074Z,7.19
2023-01-13T05:38:21.657Z,7.19
2023-01-13T05:41:06.465Z,7.20
2023-01-13T05:43:34.748Z,7.21
2023-01-13T05:46:08.070Z,7.22
2023-01-13T05:48:36.139Z,7.22
2023-01-13T05:51:05.271Z,7.24
2023-01-13T05:53:32.647Z,7.25
2023-01-13T05:56:00.073Z,7.25
2023-01-13T05:58:28.004Z,7.25
2023-01-13T06:01:00.251Z,7.22
2023-01-13T06:03:26.987Z,7.23
2023-01-13T06:05:58.718Z,7.22
2023-01-13T06:08:26.239Z,7.21
2023-01-13T06:10:52.942Z,7.22
2023-01-13T06:13:19.842Z,7.21
2023-01-13T06:15:46.368Z,7.21
2023-01-13T06:18:13.030Z,7.20
2023-01-13T06:20:39.721Z,7.19
2023-01-13T06:23:09.679Z,7.19
2023-01-13T06:25:45.049Z,7.20
2023-01-13T06:28:11.580Z,7.20
2023-01-13T06:31:00.362Z,7.19
2023-01-13T06:33:33.216Z,7.20
2023-01-13T06:36:04.475Z,7.21
2023-01-13T06:38:36.625Z,7.22
2023-01-13T06:41:04.960Z,7.17
2023-01-13T06:43:31.448Z,7.18
2023-01-13T06:45:58.001Z,7.19
2023-01-13T06:48:33.142Z,7.20
2023-01-13T06:51:00.051Z,7.19
2023-01-13T06:53:26.691Z,7.20
2023-01-13T06:55:53.226Z,7.22
2023-01-13T06:58:19.726Z,7.24
2023-01-13T07:00:51.204Z,7.26
2023-01-13T07:03:18.926Z,7.29
2023-01-13T07:05:52.943Z,7.29
2023-01-13T07:08:19.537Z,7.32
2023-01-13T07:10:46.062Z,7.34
2023-01-13T07:13:31.226Z,7.36
2023-01-13T07:16:03.326Z,7.36
2023-01-13T07:18:32.072Z,7.38
2023-01-13T07:21:03.952Z,7.40
2023-01-13T07:23:33.819Z,7.39
2023-01-13T07:26:00.826Z,7.40
2023-01-13T07:28:29.565Z,7.39
2023-01-13T07:30:56.772Z,7.39
2023-01-13T07:33:23.717Z,7.40
2023-01-13T07:35:57.779Z,7.38
2023-01-13T07:38:24.692Z,7.38
2023-01-13T07:40:51.225Z,7.35
2023-01-13T07:43:33.042Z,7.36
2023-01-13T07:46:01.694Z,7.33
2023-01-13T07:48:28.668Z,7.31
2023-01-13T07:50:55.694Z,7.33
2023-01-13T07:53:24.932Z,7.34
2023-01-13T07:55:54.771Z,7.33
2023-01-13T07:58:21.303Z,7.32
2023-01-13T08:00:47.836Z,7.32
2023-01-13T08:03:16.507Z,7.33
2023-01-13T08:05:43.410Z,7.33
2023-01-13T08:08:10.073Z,7.32
2023-01-13T08:10:37.655Z,7.30
2023-01-13T08:13:21.061Z,7.31
2023-01-13T08:15:53.079Z,7.31
2023-01-13T08:18:22.387Z,7.31
2023-01-13T08:20:50.122Z,7.32
2023-01-13T08:23:16.806Z,7.31
2023-01-13T08:25:43.384Z,7.33
2023-01-13T08:28:10.107Z,7.34
2023-01-13T08:30:36.775Z,7.36
2023-01-13T08:33:07.775Z,7.35
2023-01-13T08:35:37.470Z,7.37
2023-01-13T08:38:04.439Z,7.39
2023-01-13T08:40:31.384Z,7.39
2023-01-13T08:42:58.409Z,7.38
2023-01-13T08:45:25.148Z,7.40
2023-01-13T08:47:51.768Z,7.39
2023-01-13T08:50:18.699Z,7.41
2023-01-13T08:52:45.277Z,7.42
2023-01-13T08:55:12.355Z,7.43
2023-01-13T08:57:38.922Z,7.46
2023-01-13T09:00:08.513Z,7.44
2023-01-13T09:02:35.123Z,7.47
2023-01-13T09:05:03.914Z,7.47
2023-01-13T09:07:31.280Z,7.47
2023-01-13T09:09:58.025Z,7.48
2023-01-13T09:12:43.372Z,7.47
2023-01-13T09:15:10.733Z,7.48
2023-01-13T09:17:37.309Z,7.50
2023-01-13T09:20:04.877Z,7.48
2023-01-13T09:22:36.393Z,7.50
2023-01-13T09:25:03.765Z,7.53
2023-01-13T09:27:30.412Z,7.54
2023-01-13T09:29:56.973Z,7.57
2023-01-13T09:32:23.605Z,7.59
2023-01-13T09:35:02.556Z,7.60
2023-01-13T09:37:35.456Z,7.62
2023-01-13T09:40:04.360Z,7.65
2023-01-13T09:43:11.252Z,7.68
2023-01-13T09:45:42.749Z,7.71
2023-01-13T09:48:20.907Z,7.74
2023-01-13T09:51:01.366Z,7.74
2023-01-13T09:53:34.391Z,7.77
2023-01-13T09:56:01.195Z,7.79
2023-01-13T09:58:27.994Z,7.81
2023-01-13T10:01:06.446Z,7.84
2023-01-13T10:03:35.136Z,7.84
2023-01-13T10:06:16.647Z,7.85
2023-01-13T10:08:45.635Z,7.86
2023-01-13T10:11:39.417Z,7.85
2023-01-13T10:14:26.193Z,7.86
2023-01-13T10:17:15.514Z,7.86
2023-01-13T10:19:50.621Z,7.86
2023-01-13T10:22:38.432Z,7.87
2023-01-13T10:25:20.569Z,7.88
2023-01-13T10:27:53.019Z,7.89
2023-01-13T10:30:31.189Z,7.90
2023-01-13T10:33:06.345Z,7.92
2023-01-13T10:35:58.073Z,7.96
2023-01-13T10:38:48.737Z,7.98
2023-01-13T10:41:15.234Z,7.99
2023-01-13T10:43:45.265Z,8.01
2023-01-13T10:46:16.338Z,8.02
2023-01-13T10:48:46.790Z,8.03
2023-01-13T10:51:37.787Z,8.06
2023-01-13T10:54:13.535Z,8.07
2023-01-13T10:56:42.965Z,8.07
2023-01-13T10:59:13.304Z,8.14
2023-01-13T11:02:04.055Z,8.16
2023-01-13T11:04:40.700Z,8.17
2023-01-13T11:07:40.227Z,8.21
2023-01-13T11:10:09.582Z,8.21
2023-01-13T11:12:48.313Z,8.24
2023-01-13T11:15:20.132Z,8.24
2023-01-13T11:18:05.089Z,8.26
2023-01-13T11:20:39.898Z,8.28
2023-01-13T11:23:36.242Z,8.32
2023-01-13T11:26:11.162Z,8.30
2023-01-13T11:28:47.038Z,8.32
2023-01-13T11:31:22.429Z,8.33
2023-01-13T11:33:57.120Z,8.32
2023-01-13T11:36:32.604Z,8.31
2023-01-13T11:39:10.959Z,8.33
2023-01-13T11:42:21.660Z,8.34
2023-01-13T11:44:59.952Z,8.36
2023-01-13T11:47:27.613Z,8.37
2023-01-13T11:49:54.715Z,8.39
2023-01-13T11:52:33.795Z,8.40
2023-01-13T11:55:22.832Z,8.42
2023-01-13T11:57:54.971Z,8.41
2023-01-13T12:00:32.987Z,8.41
2023-01-13T12:03:20.545Z,8.44
2023-01-13T12:06:08.400Z,8.45
2023-01-13T12:08:35.144Z,8.44
2023-01-13T12:11:13.512Z,8.46
2023-01-13T12:14:17.663Z,8.47
2023-01-13T12:16:49.603Z,8.48
2023-01-13T12:19:18.807Z,8.49
2023-01-13T12:22:04.208Z,8.52
2023-01-13T12:24:35.716Z,8.54
2023-01-13T12:27:11.019Z,8.55
2023-01-13T12:29:38.939Z,8.57
2023-01-13T12:32:11.239Z,8.60
2023-01-13T12:34:56.348Z,8.64
2023-01-13T12:37:33.427Z,8.68
2023-01-13T12:40:18.464Z,8.73
2023-01-13T12:43:31.499Z,8.80
2023-01-13T12:46:30.347Z,8.88
2023-01-13T12:49:02.727Z,8.96
2023-01-13T12:51:51.134Z,8.99
2023-01-13T12:54:45.021Z,9.04
2023-01-13T12:57:23.420Z,9.07
2023-01-13T13:00:04.963Z,9.09
2023-01-13T13:02:38.736Z,9.12
2023-01-13T13:05:14.416Z,9.19
2023-01-13T13:07:48.683Z,9.24
2023-01-13T13:10:31.698Z,9.32
2023-01-13T13:13:19.501Z,9.37
2023-01-13T13:15:48.550Z,9.42
2023-01-13T13:18:18.104Z,9.46
2023-01-13T13:20:58.328Z,9.49
2023-01-13T13:23:37.069Z,9.54
2023-01-13T13:26:16.451Z,9.55
2023-01-13T13:29:13.594Z,9.59
2023-01-13T13:32:21.842Z,9.59
2023-01-13T13:35:12.328Z,9.61
2023-01-13T13:38:15.320Z,9.65
2023-01-13T13:41:06.169Z,9.69
2023-01-13T13:43:59.683Z,9.71
2023-01-13T13:46:47.941Z,9.74
2023-01-13T13:49:15.774Z,9.77
2023-01-13T13:51:49.283Z,9.80
2023-01-13T13:54:22.117Z,9.76
2023-01-13T13:56:50.696Z,9.75
2023-01-13T13:59:26.162Z,9.73
2023-01-13T14:02:02.139Z,9.72
2023-01-13T14:04:36.135Z,9.69
2023-01-13T14:07:21.608Z,9.66
2023-01-13T14:09:52.812Z,9.67
2023-01-13T14:12:24.517Z,9.66
2023-01-13T14:14:51.819Z,9.65
2023-01-13T14:17:29.780Z,9.63
2023-01-13T14:20:01.614Z,9.63
2023-01-13T14:22:28.523Z,9.62
2023-01-13T14:24:57.697Z,9.62
2023-01-13T14:27:27.541Z,9.61
2023-01-13T14:29:56.314Z,9.58
2023-01-13T14:32:29.948Z,9.61
2023-01-13T14:34:57.593Z,9.62
2023-01-13T14:37:40.308Z,9.60
2023-01-13T14:40:27.048Z,9.59
2023-01-13T14:43:00.669Z,9.57
2023-01-13T14:45:27.401Z,9.58
2023-01-13T14:47:54.558Z,9.59
2023-01-13T14:50:31.476Z,9.56
2023-01-13T14:53:00.686Z,9.56
2023-01-13T14:55:38.677Z,9.56
2023-01-13T14:58:20.503Z,9.55
2023-01-13T15:00:47.568Z,9.52
2023-01-13T15:03:15.547Z,9.51
2023-01-13T15:05:51.285Z,9.49
2023-01-13T15:08:29.639Z,9.48
2023-01-13T15:11:00.467Z,9.48
2023-01-13T15:13:35.564Z,9.47
2023-01-13T15:16:27.027Z,9.44
2023-01-13T15:18:55.281Z,9.43
2023-01-13T15:21:23.156Z,9.41
2023-01-13T15:23:49.992Z,9.38
2023-01-13T15:26:21.576Z,9.36
2023-01-13T15:28:48.688Z,9.35
2023-01-13T15:31:15.670Z,9.30
2023-01-13T15:33:43.218Z,9.28
2023-01-13T15:36:23.311Z,9.23
2023-01-13T15:38:50.551Z,9.24
2023-01-13T15:41:17.241Z,9.22
2023-01-13T15:44:02.111Z,9.20
2023-01-13T15:46:40.954Z,9.19
2023-01-13T15:49:12.857Z,9.17
2023-01-13T15:51:40.277Z,9.17
2023-01-13T15:54:09.997Z,9.16
2023-01-13T15:56:36.956Z,9.15
2023-01-13T15:59:15.850Z,9.14
2023-01-13T16:01:42.462Z,9.14
2023-01-13T16:04:09.890Z,9.13
2023-01-13T16:06:37.296Z,9.15
2023-01-13T16:09:05.297Z,9.11
2023-01-13T16:11:31.860Z,9.11
2023-01-13T16:13:58.707Z,9.09
2023-01-13T16:16:27.363Z,9.08
2023-01-13T16:18:54.548Z,9.07
2023-01-13T16:21:22.117Z,9.05
2023-01-13T16:23:50.553Z,9.03
2023-01-13T16:26:19.078Z,9.03
2023-01-13T16:28:45.787Z,9.02
2023-01-13T16:31:27.558Z,8.96
2023-01-13T16:33:54.154Z,8.94
2023-01-13T16:36:21.907Z,8.92
2023-01-13T16:38:52.772Z,8.87
2023-01-13T16:41:20.807Z,8.84
2023-01-13T16:43:48.507Z,8.81
2023-01-13T16:46:20.351Z,8.76
2023-01-13T16:48:48.368Z,8.73
2023-01-13T16:51:15.328Z,8.68
2023-01-13T16:53:42.014Z,8.63
2023-01-13T16:56:31.739Z,8.56
2023-01-13T16:59:01.440Z,8.55
2023-01-13T17:01:33.482Z,8.51
2023-01-13T17:04:01.332Z,8.49
2023-01-13T17:06:32.706Z,8.43
2023-01-13T17:09:08.866Z,8.34
2023-01-13T17:11:35.517Z,8.33
2023-01-13T17:14:04.399Z,8.28
2023-01-13T17:16:45.867Z,8.27
2023-01-13T17:19:12.750Z,8.20
2023-01-13T17:21:39.229Z,8.18
2023-01-13T17:24:07.885Z,8.14
2023-01-13T17:26:42.197Z,8.08
2023-01-13T17:29:13.079Z,8.08
2023-01-13T17:31:40.119Z,8.04
2023-01-13T17:34:06.738Z,8.01
2023-01-13T17:36:33.523Z,7.98
2023-01-13T17:39:00.028Z,7.91
2023-01-13T17:41:26.651Z,7.87
2023-01-13T17:43:53.942Z,7.85
2023-01-13T17:46:22.517Z,7.84
2023-01-13T17:48:51.318Z,7.80
2023-01-13T17:51:19.307Z,7.75
2023-01-13T17:53:46.161Z,7.71
2023-01-13T17:56:14.879Z,7.69
2023-01-13T17:58:41.860Z,7.66
2023-01-13T18:01:15.398Z,7.61
2023-01-13T18:03:42.678Z,7.56
2023-01-13T18:06:15.762Z,7.56
2023-01-13T18:08:42.300Z,7.51
2023-01-13T18:11:08.931Z,7.49
2023-01-13T18:13:35.987Z,7.47
2023-01-13T18:16:11.628Z,7.44
2023-01-13T18:18:39.852Z,7.42
2023-01-13T18:21:25.815Z,7.42
2023-01-13T18:24:11.258Z,7.32
2023-01-13T18:26:56.529Z,7.24
2023-01-13T18:29:23.123Z,7.23
2023-01-13T18:31:49.620Z,7.22
2023-01-13T18:34:16.396Z,7.23
2023-01-13T18:36:43.004Z,7.28
2023-01-13T18:39:09.581Z,7.22
2023-01-13T18:41:54.519Z,7.23
2023-01-13T18:44:21.453Z,7.24
2023-01-13T18:46:48.187Z,7.18
2023-01-13T18:49:14.882Z,7.10
2023-01-13T18:51:41.475Z,7.12
2023-01-13T18:54:08.005Z,7.11
2023-01-13T18:56:34.609Z,7.08
2023-01-13T18:59:02.398Z,7.00
2023-01-13T19:01:29.932Z,6.94
2023-01-13T19:04:02.816Z,6.96
2023-01-13T19:06:34.383Z,6.90
2023-01-13T19:09:08.321Z,6.94
2023-01-13T19:11:36.242Z,6.90
2023-01-13T19:14:03.896Z,6.84
2023-01-13T19:16:30.656Z,6.82
2023-01-13T19:18:57.505Z,6.83
2023-01-13T19:21:25.435Z,6.85
2023-01-13T19:23:56.353Z,6.76
2023-01-13T19:26:22.972Z,6.70
2023-01-13T19:28:50.491Z,6.67
2023-01-13T19:31:17.422Z,6.72
2023-01-13T19:33:43.937Z,6.63
2023-01-13T19:36:11.378Z,6.62
2023-01-13T19:38:38.333Z,6.59
2023-01-13T19:41:11.711Z,6.56
2023-01-13T19:43:56.479Z,6.49
2023-01-13T19:46:26.145Z,6.45
2023-01-13T19:48:52.776Z,6.45
2023-01-13T19:51:19.338Z,6.45
2023-01-13T19:53:46.860Z,6.41
2023-01-13T19:56:14.482Z,6.39
2023-01-13T19:58:42.081Z,6.42
2023-01-13T20:01:10.219Z,6.39
2023-01-13T20:03:37.771Z,6.43
2023-01-13T20:06:08.767Z,6.40
2023-01-13T20:08:35.601Z,6.34
2023-01-13T20:11:25.475Z,6.35
2023-01-13T20:13:54.759Z,6.32
2023-01-13T20:16:21.408Z,6.31
2023-01-13T20:18:51.707Z,6.30
2023-01-13T20:21:18.248Z,6.30
2023-01-13T20:23:44.761Z,6.22
2023-01-13T20:26:11.374Z,6.24
2023-01-13T20:28:39.484Z,6.18
2023-01-13T20:31:08.266Z,6.21
2023-01-13T20:33:35.055Z,6.22
2023-01-13T20:36:02.076Z,6.20
2023-01-13T20:38:28.726Z,6.24
2023-01-13T20:40:59.584Z,6.23
2023-01-13T20:43:27.209Z,6.23
2023-01-13T20:45:54.240Z,6.20
2023-01-13T20:48:20.834Z,6.23
2023-01-13T20:50:53.670Z,6.21
2023-01-13T20:53:20.184Z,6.24
2023-01-13T20:55:46.722Z,6.25
2023-01-13T20:58:13.278Z,6.24
2023-01-13T21:00:39.799Z,6.27
2023-01-13T21:03:06.552Z,6.25
2023-01-13T21:05:35.855Z,6.22
2023-01-13T21:08:02.812Z,6.16
2023-01-13T21:10:29.460Z,6.16
2023-01-13T21:13:14.431Z,6.10
2023-01-13T21:15:46.826Z,6.08
2023-01-13T21:18:48.936Z,6.07
2023-01-13T21:21:16.049Z,6.07
2023-01-13T21:23:44.520Z,6.04
2023-01-13T21:26:11.550Z,6.07
2023-01-13T21:28:38.212Z,6.02
2023-01-13T21:31:09.671Z,5.96
2023-01-13T21:33:36.733Z,5.98
2023-01-13T21:36:13.759Z,5.95
2023-01-13T21:38:40.898Z,5.93
2023-01-13T21:41:08.858Z,5.90
2023-01-13T21:43:56.120Z,5.85
2023-01-13T21:46:42.200Z,5.87
2023-01-13T21:49:08.969Z,5.83
2023-01-13T21:51:35.941Z,5.84
2023-01-13T21:54:02.533Z,5.77
2023-01-13T21:56:29.198Z,5.81
2023-01-13T21:58:58.767Z,5.73
2023-01-13T22:01:25.573Z,5.69
2023-01-13T22:04:10.576Z,5.70
2023-01-13T22:06:37.184Z,5.64
2023-01-13T22:09:04.397Z,5.65
2023-01-13T22:11:34.330Z,5.67
2023-01-13T22:14:10.151Z,5.69
2023-01-13T22:16:49.580Z,5.68
2023-01-13T22:19:18.180Z,5.68
2023-01-13T22:21:44.681Z,5.70
2023-01-13T22:24:12.040Z,5.68
2023-01-13T22:26:38.583Z,5.68
2023-01-13T22:29:05.192Z,5.75
2023-01-13T22:31:31.885Z,5.80
2023-01-13T22:33:58.527Z,5.82
2023-01-13T22:36:25.189Z,5.85
2023-01-13T22:38:56.198Z,5.81
2023-01-13T22:41:22.856Z,5.82
2023-01-13T22:43:49.437Z,5.86
2023-01-13T22:46:16.215Z,5.85
2023-01-13T22:48:43.855Z,5.87
2023-01-13T22:51:13.270Z,5.86
2023-01-13T22:53:41.042Z,5.88
2023-01-13T22:56:08.600Z,5.88
2023-01-13T22:58:35.186Z,5.88
2023-01-13T23:01:13.239Z,5.89
2023-01-13T23:03:40.318Z,5.94
2023-01-13T23:06:06.988Z,5.93
2023-01-13T23:08:34.433Z,5.93
2023-01-13T23:11:09.150Z,5.94
2023-01-13T23:13:38.124Z,5.98
2023-01-13T23:16:19.010Z,5.99
2023-01-13T23:18:48.016Z,6.00
2023-01-13T23:21:17.889Z,6.02
2023-01-13T23:23:45.043Z,6.05
2023-01-13T23:26:12.588Z,6.03
2023-01-13T23:28:39.403Z,6.04
2023-01-13T23:31:08.185Z,6.06
2023-01-13T23:33:35.910Z,6.09
2023-01-13T23:36:05.355Z,6.07
2023-01-13T23:38:32.733Z,6.08
2023-01-13T23:40:59.652Z,6.08
2023-01-13T23:43:27.140Z,6.09
2023-01-13T23:46:02.322Z,6.07
2023-01-13T23:48:29.329Z,6.09
2023-01-13T23:51:00.782Z,6.09
2023-01-13T23:53:39.918Z,6.13
2023-01-13T23:56:10.524Z,6.14
2023-01-13T23:58:37.223Z,6.15
